In Rescue
 
Open Full Screen Window  High Contrast Mode
Wind Gusting 00 knots
06
November 29, 2022 9:27 AM CST
Weather Information
Wind Direction
  010 °
Wind Speed
  06 kt (7 mph)
Wind Gust
  00 kt (0 mph)
Altimeter
29.58 in
Visibility
3 SM
Temperature
-01° C
30° F
Dewpoint
-01° C
30° F
Humidity
100%
1hr Rain Fall
00.01 in.
24hr Rain Fall
00.01 in.
Sky Condition
Overcast @ 500 ft
IFR

METAR K9MN 291527Z AUTO 01006KT 3SM OVC005 M01/M01 A2958 RMK AO1 T10071015 P0001

FAA Disclaimer: The data displayed is for advisory purposes only and is not to be used for flight planning or operations.